sensor_id;sensor_type;location;lat;lon;timestamp;P1;durP1;ratioP1;P2;durP2;ratioP2
38499;SDS011;24269;51.894;4.622;2022-07-29T00:02:03;4.25;;;1.48;;
38499;SDS011;24269;51.894;4.622;2022-07-29T00:04:29;5.45;;;1.60;;
38499;SDS011;24269;51.894;4.622;2022-07-29T00:06:54;4.15;;;1.60;;
38499;SDS011;24269;51.894;4.622;2022-07-29T00:09:20;3.00;;;1.25;;
38499;SDS011;24269;51.894;4.622;2022-07-29T00:11:45;5.30;;;1.45;;
38499;SDS011;24269;51.894;4.622;2022-07-29T00:14:11;4.30;;;1.60;;
38499;SDS011;24269;51.894;4.622;2022-07-29T00:16:37;3.97;;;1.30;;
38499;SDS011;24269;51.894;4.622;2022-07-29T00:19:03;6.55;;;1.50;;
38499;SDS011;24269;51.894;4.622;2022-07-29T00:21:28;3.92;;;1.30;;
38499;SDS011;24269;51.894;4.622;2022-07-29T00:23:54;4.20;;;1.42;;
38499;SDS011;24269;51.894;4.622;2022-07-29T00:26:20;3.55;;;1.60;;
38499;SDS011;24269;51.894;4.622;2022-07-29T00:28:46;3.88;;;1.38;;
38499;SDS011;24269;51.894;4.622;2022-07-29T00:31:11;5.15;;;1.60;;
38499;SDS011;24269;51.894;4.622;2022-07-29T00:33:37;6.25;;;1.65;;
38499;SDS011;24269;51.894;4.622;2022-07-29T00:36:03;4.82;;;1.70;;
38499;SDS011;24269;51.894;4.622;2022-07-29T00:38:29;6.38;;;1.50;;
38499;SDS011;24269;51.894;4.622;2022-07-29T00:40:54;5.68;;;1.52;;
38499;SDS011;24269;51.894;4.622;2022-07-29T00:43:20;4.22;;;1.50;;
38499;SDS011;24269;51.894;4.622;2022-07-29T00:45:46;6.93;;;1.40;;
38499;SDS011;24269;51.894;4.622;2022-07-29T00:48:11;3.28;;;1.52;;
38499;SDS011;24269;51.894;4.622;2022-07-29T00:50:37;5.40;;;1.60;;
38499;SDS011;24269;51.894;4.622;2022-07-29T00:53:04;6.75;;;1.70;;
38499;SDS011;24269;51.894;4.622;2022-07-29T00:55:32;4.88;;;1.70;;
38499;SDS011;24269;51.894;4.622;2022-07-29T00:57:58;4.95;;;1.60;;
38499;SDS011;24269;51.894;4.622;2022-07-29T01:00:25;5.07;;;1.70;;
38499;SDS011;24269;51.894;4.622;2022-07-29T01:02:52;3.55;;;1.52;;
38499;SDS011;24269;51.894;4.622;2022-07-29T01:05:19;5.75;;;1.65;;
38499;SDS011;24269;51.894;4.622;2022-07-29T01:07:46;4.93;;;1.70;;
38499;SDS011;24269;51.894;4.622;2022-07-29T01:10:15;4.88;;;1.92;;
38499;SDS011;24269;51.894;4.622;2022-07-29T01:12:42;3.83;;;1.63;;
38499;SDS011;24269;51.894;4.622;2022-07-29T01:15:09;3.75;;;1.50;;
38499;SDS011;24269;51.894;4.622;2022-07-29T01:17:45;5.93;;;1.73;;
38499;SDS011;24269;51.894;4.622;2022-07-29T01:23:20;5.80;;;1.80;;
38499;SDS011;24269;51.894;4.622;2022-07-29T01:28:55;4.22;;;1.67;;
38499;SDS011;24269;51.894;4.622;2022-07-29T01:31:29;6.25;;;1.77;;
38499;SDS011;24269;51.894;4.622;2022-07-29T01:34:17;5.03;;;1.40;;
38499;SDS011;24269;51.894;4.622;2022-07-29T01:39:42;4.85;;;1.65;;
38499;SDS011;24269;51.894;4.622;2022-07-29T01:42:14;3.05;;;1.75;;
38499;SDS011;24269;51.894;4.622;2022-07-29T01:47:41;5.10;;;1.58;;
38499;SDS011;24269;51.894;4.622;2022-07-29T01:50:12;4.22;;;1.38;;
38499;SDS011;24269;51.894;4.622;2022-07-29T01:52:49;5.05;;;1.63;;
38499;SDS011;24269;51.894;4.622;2022-07-29T01:55:21;3.78;;;1.60;;
38499;SDS011;24269;51.894;4.622;2022-07-29T01:57:50;4.60;;;1.70;;
38499;SDS011;24269;51.894;4.622;2022-07-29T02:00:16;2.85;;;1.58;;
38499;SDS011;24269;51.894;4.622;2022-07-29T02:02:43;3.75;;;1.40;;
38499;SDS011;24269;51.894;4.622;2022-07-29T02:05:17;4.47;;;1.60;;
38499;SDS011;24269;51.894;4.622;2022-07-29T02:07:46;3.60;;;1.70;;
38499;SDS011;24269;51.894;4.622;2022-07-29T02:10:13;4.97;;;1.60;;
38499;SDS011;24269;51.894;4.622;2022-07-29T02:12:40;4.35;;;1.60;;
38499;SDS011;24269;51.894;4.622;2022-07-29T02:15:08;4.88;;;1.70;;
38499;SDS011;24269;51.894;4.622;2022-07-29T02:17:40;5.72;;;1.80;;
38499;SDS011;24269;51.894;4.622;2022-07-29T02:20:19;6.28;;;1.90;;
38499;SDS011;24269;51.894;4.622;2022-07-29T02:22:44;5.65;;;1.85;;
38499;SDS011;24269;51.894;4.622;2022-07-29T02:25:13;5.38;;;2.00;;
38499;SDS011;24269;51.894;4.622;2022-07-29T02:27:41;5.95;;;2.10;;
38499;SDS011;24269;51.894;4.622;2022-07-29T02:30:08;5.00;;;1.90;;
38499;SDS011;24269;51.894;4.622;2022-07-29T02:32:35;5.80;;;2.38;;
38499;SDS011;24269;51.894;4.622;2022-07-29T02:35:04;5.45;;;1.90;;
38499;SDS011;24269;51.894;4.622;2022-07-29T02:37:32;4.43;;;1.80;;
38499;SDS011;24269;51.894;4.622;2022-07-29T02:40:00;4.70;;;1.70;;
38499;SDS011;24269;51.894;4.622;2022-07-29T02:42:30;4.25;;;1.70;;
38499;SDS011;24269;51.894;4.622;2022-07-29T02:44:57;3.35;;;1.90;;
38499;SDS011;24269;51.894;4.622;2022-07-29T02:50:13;6.40;;;1.90;;
38499;SDS011;24269;51.894;4.622;2022-07-29T02:52:59;3.13;;;1.75;;
38499;SDS011;24269;51.894;4.622;2022-07-29T02:55:30;4.03;;;2.28;;
38499;SDS011;24269;51.894;4.622;2022-07-29T03:00:38;4.82;;;1.80;;
38499;SDS011;24269;51.894;4.622;2022-07-29T03:03:07;4.93;;;1.90;;
38499;SDS011;24269;51.894;4.622;2022-07-29T03:05:37;6.50;;;2.15;;
38499;SDS011;24269;51.894;4.622;2022-07-29T03:08:04;5.68;;;2.38;;
38499;SDS011;24269;51.894;4.622;2022-07-29T03:10:31;5.60;;;2.10;;
38499;SDS011;24269;51.894;4.622;2022-07-29T03:12:58;6.75;;;2.03;;
38499;SDS011;24269;51.894;4.622;2022-07-29T03:15:25;4.50;;;2.20;;
38499;SDS011;24269;51.894;4.622;2022-07-29T03:17:51;4.10;;;2.10;;
38499;SDS011;24269;51.894;4.622;2022-07-29T03:20:18;5.53;;;1.90;;
38499;SDS011;24269;51.894;4.622;2022-07-29T03:22:45;6.10;;;1.90;;
38499;SDS011;24269;51.894;4.622;2022-07-29T03:25:14;5.50;;;2.10;;
38499;SDS011;24269;51.894;4.622;2022-07-29T03:27:42;4.50;;;2.20;;
38499;SDS011;24269;51.894;4.622;2022-07-29T03:30:08;5.57;;;2.10;;
38499;SDS011;24269;51.894;4.622;2022-07-29T03:32:34;6.05;;;2.03;;
38499;SDS011;24269;51.894;4.622;2022-07-29T03:35:00;7.05;;;2.40;;
38499;SDS011;24269;51.894;4.622;2022-07-29T03:37:26;6.57;;;2.33;;
38499;SDS011;24269;51.894;4.622;2022-07-29T03:39:52;3.30;;;2.05;;
38499;SDS011;24269;51.894;4.622;2022-07-29T03:42:21;4.35;;;2.00;;
38499;SDS011;24269;51.894;4.622;2022-07-29T03:44:52;6.97;;;2.30;;
38499;SDS011;24269;51.894;4.622;2022-07-29T03:47:23;6.43;;;2.50;;
38499;SDS011;24269;51.894;4.622;2022-07-29T03:49:51;6.43;;;2.58;;
38499;SDS011;24269;51.894;4.622;2022-07-29T03:52:21;5.03;;;2.30;;
38499;SDS011;24269;51.894;4.622;2022-07-29T03:54:50;4.97;;;2.58;;
38499;SDS011;24269;51.894;4.622;2022-07-29T03:57:16;3.88;;;2.17;;
38499;SDS011;24269;51.894;4.622;2022-07-29T03:59:45;4.80;;;2.38;;
38499;SDS011;24269;51.894;4.622;2022-07-29T04:02:12;6.20;;;2.42;;
38499;SDS011;24269;51.894;4.622;2022-07-29T04:04:38;5.95;;;2.47;;
38499;SDS011;24269;51.894;4.622;2022-07-29T04:07:04;5.28;;;2.60;;
38499;SDS011;24269;51.894;4.622;2022-07-29T04:09:30;5.22;;;2.38;;
38499;SDS011;24269;51.894;4.622;2022-07-29T04:11:56;6.18;;;2.85;;
38499;SDS011;24269;51.894;4.622;2022-07-29T04:14:21;5.43;;;2.70;;
38499;SDS011;24269;51.894;4.622;2022-07-29T04:16:47;5.60;;;2.53;;
38499;SDS011;24269;51.894;4.622;2022-07-29T04:19:15;5.07;;;2.67;;
38499;SDS011;24269;51.894;4.622;2022-07-29T04:21:41;5.25;;;2.55;;
38499;SDS011;24269;51.894;4.622;2022-07-29T04:24:09;6.25;;;2.78;;
38499;SDS011;24269;51.894;4.622;2022-07-29T04:26:37;6.03;;;2.80;;
38499;SDS011;24269;51.894;4.622;2022-07-29T04:29:03;5.53;;;3.00;;
38499;SDS011;24269;51.894;4.622;2022-07-29T04:31:28;6.38;;;3.13;;
38499;SDS011;24269;51.894;4.622;2022-07-29T04:33:54;6.60;;;3.20;;
38499;SDS011;24269;51.894;4.622;2022-07-29T04:36:19;4.85;;;2.90;;
38499;SDS011;24269;51.894;4.622;2022-07-29T04:38:45;7.78;;;3.30;;
38499;SDS011;24269;51.894;4.622;2022-07-29T04:41:10;4.43;;;2.85;;
38499;SDS011;24269;51.894;4.622;2022-07-29T04:43:36;7.25;;;2.92;;
38499;SDS011;24269;51.894;4.622;2022-07-29T04:46:05;6.68;;;3.00;;
38499;SDS011;24269;51.894;4.622;2022-07-29T04:48:31;7.32;;;3.30;;
38499;SDS011;24269;51.894;4.622;2022-07-29T04:50:57;5.75;;;3.22;;
38499;SDS011;24269;51.894;4.622;2022-07-29T04:53:23;5.93;;;3.15;;
38499;SDS011;24269;51.894;4.622;2022-07-29T04:55:49;6.15;;;3.30;;
38499;SDS011;24269;51.894;4.622;2022-07-29T04:58:14;5.20;;;2.88;;
38499;SDS011;24269;51.894;4.622;2022-07-29T05:00:41;6.15;;;2.88;;
38499;SDS011;24269;51.894;4.622;2022-07-29T05:03:06;6.80;;;3.10;;
38499;SDS011;24269;51.894;4.622;2022-07-29T05:05:32;6.75;;;3.35;;
38499;SDS011;24269;51.894;4.622;2022-07-29T05:07:58;9.88;;;3.28;;
38499;SDS011;24269;51.894;4.622;2022-07-29T05:10:23;6.70;;;3.35;;
38499;SDS011;24269;51.894;4.622;2022-07-29T05:12:49;7.25;;;3.40;;
38499;SDS011;24269;51.894;4.622;2022-07-29T05:15:15;9.00;;;3.53;;
38499;SDS011;24269;51.894;4.622;2022-07-29T05:17:42;7.15;;;3.30;;
38499;SDS011;24269;51.894;4.622;2022-07-29T05:20:08;5.18;;;3.40;;
38499;SDS011;24269;51.894;4.622;2022-07-29T05:22:34;8.38;;;3.70;;
38499;SDS011;24269;51.894;4.622;2022-07-29T05:25:02;6.97;;;3.70;;
38499;SDS011;24269;51.894;4.622;2022-07-29T05:27:28;6.13;;;3.67;;
38499;SDS011;24269;51.894;4.622;2022-07-29T05:29:57;6.53;;;3.28;;
38499;SDS011;24269;51.894;4.622;2022-07-29T05:32:25;7.38;;;3.80;;
38499;SDS011;24269;51.894;4.622;2022-07-29T05:34:51;6.53;;;3.55;;
38499;SDS011;24269;51.894;4.622;2022-07-29T05:37:17;7.85;;;3.17;;
38499;SDS011;24269;51.894;4.622;2022-07-29T05:39:46;7.20;;;3.22;;
38499;SDS011;24269;51.894;4.622;2022-07-29T05:42:12;6.13;;;3.15;;
38499;SDS011;24269;51.894;4.622;2022-07-29T05:44:38;6.70;;;2.92;;
38499;SDS011;24269;51.894;4.622;2022-07-29T05:47:04;8.13;;;3.00;;
38499;SDS011;24269;51.894;4.622;2022-07-29T05:49:31;6.38;;;3.17;;
38499;SDS011;24269;51.894;4.622;2022-07-29T05:51:57;5.55;;;2.85;;
38499;SDS011;24269;51.894;4.622;2022-07-29T05:54:23;7.00;;;2.78;;
38499;SDS011;24269;51.894;4.622;2022-07-29T05:56:49;7.25;;;2.85;;
38499;SDS011;24269;51.894;4.622;2022-07-29T05:59:14;9.45;;;2.95;;
38499;SDS011;24269;51.894;4.622;2022-07-29T06:01:40;5.93;;;2.60;;
38499;SDS011;24269;51.894;4.622;2022-07-29T06:04:06;6.20;;;2.45;;
38499;SDS011;24269;51.894;4.622;2022-07-29T06:06:33;5.70;;;2.40;;
38499;SDS011;24269;51.894;4.622;2022-07-29T06:09:00;5.40;;;2.65;;
38499;SDS011;24269;51.894;4.622;2022-07-29T06:11:26;5.57;;;2.67;;
38499;SDS011;24269;51.894;4.622;2022-07-29T06:13:54;5.57;;;2.92;;
38499;SDS011;24269;51.894;4.622;2022-07-29T06:16:23;5.40;;;2.53;;
38499;SDS011;24269;51.894;4.622;2022-07-29T06:18:49;8.30;;;2.65;;
38499;SDS011;24269;51.894;4.622;2022-07-29T06:21:14;4.85;;;2.70;;
38499;SDS011;24269;51.894;4.622;2022-07-29T06:23:43;6.78;;;3.00;;
38499;SDS011;24269;51.894;4.622;2022-07-29T06:26:10;6.30;;;2.88;;
38499;SDS011;24269;51.894;4.622;2022-07-29T06:28:35;6.63;;;2.67;;
38499;SDS011;24269;51.894;4.622;2022-07-29T06:31:05;7.35;;;2.80;;
38499;SDS011;24269;51.894;4.622;2022-07-29T06:33:30;5.65;;;2.50;;
38499;SDS011;24269;51.894;4.622;2022-07-29T06:35:56;5.00;;;2.20;;
38499;SDS011;24269;51.894;4.622;2022-07-29T06:38:21;5.38;;;2.67;;
38499;SDS011;24269;51.894;4.622;2022-07-29T06:40:47;5.22;;;2.40;;
38499;SDS011;24269;51.894;4.622;2022-07-29T06:43:35;4.80;;;2.42;;
38499;SDS011;24269;51.894;4.622;2022-07-29T06:46:06;7.13;;;2.78;;
38499;SDS011;24269;51.894;4.622;2022-07-29T06:48:33;5.95;;;2.47;;
38499;SDS011;24269;51.894;4.622;2022-07-29T06:51:10;7.75;;;2.80;;
38499;SDS011;24269;51.894;4.622;2022-07-29T06:53:38;5.32;;;2.50;;
38499;SDS011;24269;51.894;4.622;2022-07-29T06:56:07;6.30;;;2.63;;
38499;SDS011;24269;51.894;4.622;2022-07-29T06:58:37;6.85;;;2.80;;
38499;SDS011;24269;51.894;4.622;2022-07-29T07:01:03;5.13;;;2.35;;
38499;SDS011;24269;51.894;4.622;2022-07-29T07:03:30;7.93;;;2.30;;
38499;SDS011;24269;51.894;4.622;2022-07-29T07:05:56;6.03;;;2.40;;
38499;SDS011;24269;51.894;4.622;2022-07-29T07:08:34;5.15;;;2.25;;
38499;SDS011;24269;51.894;4.622;2022-07-29T07:11:00;6.13;;;2.40;;
38499;SDS011;24269;51.894;4.622;2022-07-29T07:13:26;5.65;;;2.50;;
38499;SDS011;24269;51.894;4.622;2022-07-29T07:15:53;4.75;;;2.60;;
38499;SDS011;24269;51.894;4.622;2022-07-29T07:18:18;6.22;;;2.58;;
38499;SDS011;24269;51.894;4.622;2022-07-29T07:20:44;5.07;;;2.30;;
38499;SDS011;24269;51.894;4.622;2022-07-29T07:23:10;4.47;;;2.50;;
38499;SDS011;24269;51.894;4.622;2022-07-29T07:25:38;5.88;;;2.70;;
38499;SDS011;24269;51.894;4.622;2022-07-29T07:28:04;5.40;;;2.25;;
38499;SDS011;24269;51.894;4.622;2022-07-29T07:30:30;4.68;;;2.75;;
38499;SDS011;24269;51.894;4.622;2022-07-29T07:32:56;5.88;;;2.78;;
38499;SDS011;24269;51.894;4.622;2022-07-29T07:35:21;5.75;;;2.42;;
38499;SDS011;24269;51.894;4.622;2022-07-29T07:37:47;7.50;;;2.90;;
38499;SDS011;24269;51.894;4.622;2022-07-29T07:40:12;7.45;;;2.63;;
38499;SDS011;24269;51.894;4.622;2022-07-29T07:42:39;5.18;;;2.60;;
38499;SDS011;24269;51.894;4.622;2022-07-29T07:45:06;7.32;;;2.95;;
38499;SDS011;24269;51.894;4.622;2022-07-29T07:47:34;6.30;;;2.55;;
38499;SDS011;24269;51.894;4.622;2022-07-29T07:50:00;6.03;;;2.80;;
38499;SDS011;24269;51.894;4.622;2022-07-29T07:52:26;5.30;;;2.60;;
38499;SDS011;24269;51.894;4.622;2022-07-29T07:54:52;5.18;;;2.90;;
38499;SDS011;24269;51.894;4.622;2022-07-29T07:57:18;7.75;;;2.92;;
38499;SDS011;24269;51.894;4.622;2022-07-29T07:59:43;5.43;;;2.72;;
38499;SDS011;24269;51.894;4.622;2022-07-29T08:02:09;7.93;;;2.83;;
38499;SDS011;24269;51.894;4.622;2022-07-29T08:04:35;4.78;;;2.80;;
38499;SDS011;24269;51.894;4.622;2022-07-29T08:07:05;7.20;;;2.75;;
38499;SDS011;24269;51.894;4.622;2022-07-29T08:09:34;6.53;;;2.60;;
38499;SDS011;24269;51.894;4.622;2022-07-29T08:12:01;6.18;;;2.65;;
38499;SDS011;24269;51.894;4.622;2022-07-29T08:14:28;5.60;;;2.80;;
38499;SDS011;24269;51.894;4.622;2022-07-29T08:16:55;4.35;;;2.47;;
38499;SDS011;24269;51.894;4.622;2022-07-29T08:19:20;5.50;;;2.40;;
38499;SDS011;24269;51.894;4.622;2022-07-29T08:21:46;10.95;;;2.53;;
38499;SDS011;24269;51.894;4.622;2022-07-29T08:24:14;6.20;;;2.47;;
38499;SDS011;24269;51.894;4.622;2022-07-29T08:26:58;7.22;;;2.45;;
38499;SDS011;24269;51.894;4.622;2022-07-29T08:29:24;6.68;;;2.60;;
38499;SDS011;24269;51.894;4.622;2022-07-29T08:31:50;7.20;;;2.25;;
38499;SDS011;24269;51.894;4.622;2022-07-29T08:34:16;6.63;;;2.80;;
38499;SDS011;24269;51.894;4.622;2022-07-29T08:36:41;5.38;;;1.98;;
38499;SDS011;24269;51.894;4.622;2022-07-29T08:39:10;5.80;;;2.33;;
38499;SDS011;24269;51.894;4.622;2022-07-29T08:41:35;4.82;;;2.17;;
38499;SDS011;24269;51.894;4.622;2022-07-29T08:44:01;5.80;;;2.17;;
38499;SDS011;24269;51.894;4.622;2022-07-29T08:46:26;6.85;;;2.45;;
38499;SDS011;24269;51.894;4.622;2022-07-29T08:48:52;3.83;;;1.98;;
38499;SDS011;24269;51.894;4.622;2022-07-29T08:51:18;5.53;;;2.40;;
38499;SDS011;24269;51.894;4.622;2022-07-29T08:53:46;5.68;;;1.80;;
38499;SDS011;24269;51.894;4.622;2022-07-29T08:56:14;6.00;;;1.98;;
38499;SDS011;24269;51.894;4.622;2022-07-29T08:58:44;6.78;;;2.50;;
38499;SDS011;24269;51.894;4.622;2022-07-29T09:01:12;8.40;;;2.78;;
38499;SDS011;24269;51.894;4.622;2022-07-29T09:03:44;4.75;;;2.42;;
38499;SDS011;24269;51.894;4.622;2022-07-29T09:06:14;6.43;;;2.72;;
38499;SDS011;24269;51.894;4.622;2022-07-29T09:08:44;5.45;;;2.00;;
38499;SDS011;24269;51.894;4.622;2022-07-29T09:11:11;6.13;;;2.30;;
38499;SDS011;24269;51.894;4.622;2022-07-29T09:13:37;4.63;;;2.45;;
38499;SDS011;24269;51.894;4.622;2022-07-29T09:16:06;5.90;;;2.70;;
38499;SDS011;24269;51.894;4.622;2022-07-29T09:18:38;7.47;;;2.70;;
38499;SDS011;24269;51.894;4.622;2022-07-29T09:21:06;4.60;;;2.30;;
38499;SDS011;24269;51.894;4.622;2022-07-29T09:24:05;5.38;;;2.30;;
38499;SDS011;24269;51.894;4.622;2022-07-29T09:26:36;5.13;;;2.30;;
38499;SDS011;24269;51.894;4.622;2022-07-29T09:29:10;7.28;;;2.55;;
38499;SDS011;24269;51.894;4.622;2022-07-29T09:31:38;5.70;;;2.10;;
38499;SDS011;24269;51.894;4.622;2022-07-29T09:34:05;6.03;;;2.50;;
38499;SDS011;24269;51.894;4.622;2022-07-29T09:36:38;5.78;;;2.40;;
38499;SDS011;24269;51.894;4.622;2022-07-29T09:39:12;6.93;;;1.75;;
38499;SDS011;24269;51.894;4.622;2022-07-29T09:41:49;6.68;;;1.88;;
38499;SDS011;24269;51.894;4.622;2022-07-29T09:44:40;5.05;;;1.70;;
38499;SDS011;24269;51.894;4.622;2022-07-29T09:47:11;6.35;;;2.00;;
38499;SDS011;24269;51.894;4.622;2022-07-29T09:49:50;8.07;;;2.38;;
38499;SDS011;24269;51.894;4.622;2022-07-29T09:52:18;8.13;;;2.55;;
38499;SDS011;24269;51.894;4.622;2022-07-29T09:54:45;5.00;;;1.77;;
38499;SDS011;24269;51.894;4.622;2022-07-29T09:57:21;4.47;;;1.90;;
38499;SDS011;24269;51.894;4.622;2022-07-29T10:03:32;5.75;;;1.60;;
38499;SDS011;24269;51.894;4.622;2022-07-29T10:06:15;5.88;;;1.50;;
38499;SDS011;24269;51.894;4.622;2022-07-29T10:08:41;4.72;;;1.23;;
38499;SDS011;24269;51.894;4.622;2022-07-29T10:11:11;10.00;;;2.10;;
38499;SDS011;24269;51.894;4.622;2022-07-29T10:13:40;4.78;;;1.98;;
38499;SDS011;24269;51.894;4.622;2022-07-29T10:16:06;5.30;;;1.73;;
38499;SDS011;24269;51.894;4.622;2022-07-29T10:18:32;5.88;;;1.80;;
38499;SDS011;24269;51.894;4.622;2022-07-29T10:20:59;4.55;;;1.42;;
38499;SDS011;24269;51.894;4.622;2022-07-29T10:23:29;3.42;;;1.80;;
38499;SDS011;24269;51.894;4.622;2022-07-29T10:25:55;5.60;;;1.75;;
38499;SDS011;24269;51.894;4.622;2022-07-29T10:28:21;7.63;;;2.00;;
38499;SDS011;24269;51.894;4.622;2022-07-29T10:30:48;7.50;;;1.90;;
38499;SDS011;24269;51.894;4.622;2022-07-29T10:33:18;7.00;;;2.00;;
38499;SDS011;24269;51.894;4.622;2022-07-29T10:38:51;7.50;;;2.30;;
38499;SDS011;24269;51.894;4.622;2022-07-29T10:44:01;4.95;;;1.77;;
38499;SDS011;24269;51.894;4.622;2022-07-29T10:46:54;7.40;;;1.77;;
38499;SDS011;24269;51.894;4.622;2022-07-29T10:49:23;7.20;;;2.38;;
38499;SDS011;24269;51.894;4.622;2022-07-29T11:05:13;4.68;;;1.40;;
38499;SDS011;24269;51.894;4.622;2022-07-29T11:10:39;9.35;;;1.75;;
38499;SDS011;24269;51.894;4.622;2022-07-29T11:13:05;5.40;;;1.63;;
38499;SDS011;24269;51.894;4.622;2022-07-29T11:15:52;5.15;;;2.03;;
38499;SDS011;24269;51.894;4.622;2022-07-29T11:18:17;3.38;;;1.40;;
38499;SDS011;24269;51.894;4.622;2022-07-29T11:20:47;3.60;;;1.42;;
38499;SDS011;24269;51.894;4.622;2022-07-29T11:31:19;5.43;;;1.50;;
38499;SDS011;24269;51.894;4.622;2022-07-29T11:34:16;3.95;;;1.40;;
38499;SDS011;24269;51.894;4.622;2022-07-29T11:39:37;6.43;;;1.38;;
38499;SDS011;24269;51.894;4.622;2022-07-29T11:42:36;7.22;;;1.80;;
38499;SDS011;24269;51.894;4.622;2022-07-29T11:45:01;5.38;;;1.40;;
38499;SDS011;24269;51.894;4.622;2022-07-29T11:47:29;5.90;;;1.33;;
38499;SDS011;24269;51.894;4.622;2022-07-29T11:49:56;5.50;;;1.23;;
38499;SDS011;24269;51.894;4.622;2022-07-29T11:52:23;7.43;;;1.30;;
38499;SDS011;24269;51.894;4.622;2022-07-29T11:54:56;4.22;;;1.20;;
38499;SDS011;24269;51.894;4.622;2022-07-29T11:57:26;5.30;;;1.50;;
38499;SDS011;24269;51.894;4.622;2022-07-29T11:59:52;5.00;;;1.25;;
38499;SDS011;24269;51.894;4.622;2022-07-29T12:02:20;6.68;;;1.40;;
38499;SDS011;24269;51.894;4.622;2022-07-29T12:07:18;6.20;;;1.50;;
38499;SDS011;24269;51.894;4.622;2022-07-29T12:09:50;6.82;;;1.27;;
38499;SDS011;24269;51.894;4.622;2022-07-29T12:12:17;5.13;;;0.98;;
38499;SDS011;24269;51.894;4.622;2022-07-29T12:14:42;5.55;;;1.52;;
38499;SDS011;24269;51.894;4.622;2022-07-29T12:17:32;7.50;;;1.60;;
38499;SDS011;24269;51.894;4.622;2022-07-29T12:19:59;5.93;;;1.63;;
38499;SDS011;24269;51.894;4.622;2022-07-29T12:22:37;4.75;;;1.80;;
38499;SDS011;24269;51.894;4.622;2022-07-29T12:27:32;5.15;;;1.52;;
38499;SDS011;24269;51.894;4.622;2022-07-29T12:29:59;6.63;;;1.55;;
38499;SDS011;24269;51.894;4.622;2022-07-29T12:32:32;6.30;;;1.60;;
38499;SDS011;24269;51.894;4.622;2022-07-29T12:35:02;5.55;;;1.52;;
38499;SDS011;24269;51.894;4.622;2022-07-29T12:37:29;7.07;;;1.77;;
38499;SDS011;24269;51.894;4.622;2022-07-29T12:39:55;8.43;;;1.60;;
38499;SDS011;24269;51.894;4.622;2022-07-29T12:42:21;4.43;;;1.38;;
38499;SDS011;24269;51.894;4.622;2022-07-29T12:44:50;7.57;;;1.40;;
38499;SDS011;24269;51.894;4.622;2022-07-29T12:47:17;7.45;;;1.90;;
38499;SDS011;24269;51.894;4.622;2022-07-29T12:49:44;4.75;;;1.60;;
38499;SDS011;24269;51.894;4.622;2022-07-29T12:52:26;6.25;;;1.73;;
38499;SDS011;24269;51.894;4.622;2022-07-29T12:54:53;4.28;;;1.50;;
38499;SDS011;24269;51.894;4.622;2022-07-29T12:57:19;8.68;;;1.90;;
38499;SDS011;24269;51.894;4.622;2022-07-29T12:59:45;6.13;;;1.60;;
38499;SDS011;24269;51.894;4.622;2022-07-29T13:02:23;7.30;;;2.00;;
38499;SDS011;24269;51.894;4.622;2022-07-29T13:04:56;5.90;;;1.83;;
38499;SDS011;24269;51.894;4.622;2022-07-29T13:07:26;6.57;;;2.08;;
38499;SDS011;24269;51.894;4.622;2022-07-29T13:09:54;4.28;;;1.60;;
38499;SDS011;24269;51.894;4.622;2022-07-29T13:12:34;4.40;;;1.42;;
38499;SDS011;24269;51.894;4.622;2022-07-29T13:15:11;5.85;;;1.58;;
38499;SDS011;24269;51.894;4.622;2022-07-29T13:17:42;7.43;;;1.30;;
38499;SDS011;24269;51.894;4.622;2022-07-29T13:20:11;4.03;;;1.63;;
38499;SDS011;24269;51.894;4.622;2022-07-29T13:22:38;7.80;;;1.63;;
38499;SDS011;24269;51.894;4.622;2022-07-29T13:25:04;7.55;;;1.70;;
38499;SDS011;24269;51.894;4.622;2022-07-29T13:27:33;5.22;;;1.33;;
38499;SDS011;24269;51.894;4.622;2022-07-29T13:30:04;8.23;;;1.60;;
38499;SDS011;24269;51.894;4.622;2022-07-29T13:32:32;7.70;;;1.50;;
38499;SDS011;24269;51.894;4.622;2022-07-29T13:35:00;4.82;;;1.60;;
38499;SDS011;24269;51.894;4.622;2022-07-29T13:37:27;6.93;;;1.80;;
38499;SDS011;24269;51.894;4.622;2022-07-29T13:39:54;6.32;;;1.67;;
38499;SDS011;24269;51.894;4.622;2022-07-29T13:42:24;5.53;;;1.45;;
38499;SDS011;24269;51.894;4.622;2022-07-29T13:44:50;5.32;;;1.13;;
38499;SDS011;24269;51.894;4.622;2022-07-29T13:47:16;6.40;;;1.52;;
38499;SDS011;24269;51.894;4.622;2022-07-29T13:49:46;4.45;;;1.48;;
38499;SDS011;24269;51.894;4.622;2022-07-29T13:52:12;7.28;;;1.38;;
38499;SDS011;24269;51.894;4.622;2022-07-29T13:54:37;9.20;;;1.45;;
38499;SDS011;24269;51.894;4.622;2022-07-29T13:57:06;5.13;;;1.30;;
38499;SDS011;24269;51.894;4.622;2022-07-29T13:59:32;6.55;;;1.45;;
38499;SDS011;24269;51.894;4.622;2022-07-29T14:01:59;6.00;;;1.67;;
38499;SDS011;24269;51.894;4.622;2022-07-29T14:04:24;5.43;;;1.63;;
38499;SDS011;24269;51.894;4.622;2022-07-29T14:06:50;6.43;;;1.63;;
38499;SDS011;24269;51.894;4.622;2022-07-29T14:09:16;5.97;;;1.70;;
38499;SDS011;24269;51.894;4.622;2022-07-29T14:11:42;7.30;;;1.67;;
38499;SDS011;24269;51.894;4.622;2022-07-29T14:14:07;5.75;;;1.88;;
38499;SDS011;24269;51.894;4.622;2022-07-29T14:16:33;5.90;;;1.40;;
38499;SDS011;24269;51.894;4.622;2022-07-29T14:18:59;5.50;;;1.55;;
38499;SDS011;24269;51.894;4.622;2022-07-29T14:21:24;4.60;;;1.77;;
38499;SDS011;24269;51.894;4.622;2022-07-29T14:23:50;4.00;;;1.55;;
38499;SDS011;24269;51.894;4.622;2022-07-29T14:26:17;6.30;;;1.67;;
38499;SDS011;24269;51.894;4.622;2022-07-29T14:28:43;6.35;;;1.58;;
38499;SDS011;24269;51.894;4.622;2022-07-29T14:31:09;6.35;;;1.48;;
38499;SDS011;24269;51.894;4.622;2022-07-29T14:33:35;6.78;;;1.30;;
38499;SDS011;24269;51.894;4.622;2022-07-29T14:36:00;5.70;;;1.25;;
38499;SDS011;24269;51.894;4.622;2022-07-29T14:38:26;4.22;;;1.48;;
38499;SDS011;24269;51.894;4.622;2022-07-29T14:40:51;6.05;;;1.73;;
38499;SDS011;24269;51.894;4.622;2022-07-29T14:43:17;4.57;;;1.33;;
38499;SDS011;24269;51.894;4.622;2022-07-29T14:45:43;4.15;;;1.50;;
38499;SDS011;24269;51.894;4.622;2022-07-29T14:48:08;4.57;;;1.52;;
38499;SDS011;24269;51.894;4.622;2022-07-29T14:50:36;5.07;;;1.52;;
38499;SDS011;24269;51.894;4.622;2022-07-29T14:53:02;6.90;;;1.40;;
38499;SDS011;24269;51.894;4.622;2022-07-29T14:55:28;4.70;;;1.30;;
38499;SDS011;24269;51.894;4.622;2022-07-29T14:57:53;3.72;;;1.42;;
38499;SDS011;24269;51.894;4.622;2022-07-29T15:00:19;4.88;;;1.50;;
38499;SDS011;24269;51.894;4.622;2022-07-29T15:02:46;4.40;;;1.40;;
38499;SDS011;24269;51.894;4.622;2022-07-29T15:05:12;3.97;;;1.60;;
38499;SDS011;24269;51.894;4.622;2022-07-29T15:07:37;7.88;;;1.50;;
38499;SDS011;24269;51.894;4.622;2022-07-29T15:10:03;4.82;;;1.65;;
38499;SDS011;24269;51.894;4.622;2022-07-29T15:12:30;6.22;;;1.50;;
38499;SDS011;24269;51.894;4.622;2022-07-29T15:14:56;6.97;;;1.65;;
38499;SDS011;24269;51.894;4.622;2022-07-29T15:17:22;4.70;;;1.38;;
38499;SDS011;24269;51.894;4.622;2022-07-29T15:19:47;5.32;;;1.20;;
38499;SDS011;24269;51.894;4.622;2022-07-29T15:22:13;4.05;;;1.20;;
38499;SDS011;24269;51.894;4.622;2022-07-29T15:24:39;5.90;;;1.50;;
38499;SDS011;24269;51.894;4.622;2022-07-29T15:27:04;6.55;;;1.63;;
38499;SDS011;24269;51.894;4.622;2022-07-29T15:29:30;5.50;;;1.20;;
38499;SDS011;24269;51.894;4.622;2022-07-29T15:31:56;6.47;;;1.60;;
38499;SDS011;24269;51.894;4.622;2022-07-29T15:34:21;5.03;;;1.45;;
38499;SDS011;24269;51.894;4.622;2022-07-29T15:36:48;6.30;;;1.30;;
38499;SDS011;24269;51.894;4.622;2022-07-29T15:39:17;4.35;;;1.20;;
38499;SDS011;24269;51.894;4.622;2022-07-29T15:41:43;5.22;;;1.10;;
38499;SDS011;24269;51.894;4.622;2022-07-29T15:44:08;5.88;;;1.38;;
38499;SDS011;24269;51.894;4.622;2022-07-29T15:46:34;6.82;;;1.50;;
38499;SDS011;24269;51.894;4.622;2022-07-29T15:49:18;6.63;;;1.55;;
38499;SDS011;24269;51.894;4.622;2022-07-29T15:51:44;4.22;;;1.30;;
38499;SDS011;24269;51.894;4.622;2022-07-29T15:54:09;5.65;;;1.25;;